sensor_id;sensor_type;location;lat;lon;timestamp;P1;durP1;ratioP1;P2;durP2;ratioP2
26612;SDS011;14248;57.652;11.908;2023-02-28T00:00:06;3.25;;;2.05;;
26612;SDS011;14248;57.652;11.908;2023-02-28T00:02:36;6.68;;;3.38;;
26612;SDS011;14248;57.652;11.908;2023-02-28T00:05:02;20.10;;;9.45;;
26612;SDS011;14248;57.652;11.908;2023-02-28T00:07:29;16.35;;;8.48;;
26612;SDS011;14248;57.652;11.908;2023-02-28T00:09:55;9.93;;;6.00;;
26612;SDS011;14248;57.652;11.908;2023-02-28T00:12:22;9.00;;;4.93;;
26612;SDS011;14248;57.652;11.908;2023-02-28T00:14:49;8.02;;;4.45;;
26612;SDS011;14248;57.652;11.908;2023-02-28T00:17:16;7.13;;;3.35;;
26612;SDS011;14248;57.652;11.908;2023-02-28T00:19:49;5.45;;;2.90;;
26612;SDS011;14248;57.652;11.908;2023-02-28T00:22:15;5.50;;;3.10;;
26612;SDS011;14248;57.652;11.908;2023-02-28T00:24:41;4.60;;;2.70;;
26612;SDS011;14248;57.652;11.908;2023-02-28T00:27:08;3.20;;;2.20;;
26612;SDS011;14248;57.652;11.908;2023-02-28T00:29:34;6.15;;;3.33;;
26612;SDS011;14248;57.652;11.908;2023-02-28T00:32:00;5.00;;;3.03;;
26612;SDS011;14248;57.652;11.908;2023-02-28T00:34:26;3.47;;;2.70;;
26612;SDS011;14248;57.652;11.908;2023-02-28T00:36:52;3.97;;;2.50;;
26612;SDS011;14248;57.652;11.908;2023-02-28T00:39:18;4.32;;;2.33;;
26612;SDS011;14248;57.652;11.908;2023-02-28T00:41:44;4.03;;;2.28;;
26612;SDS011;14248;57.652;11.908;2023-02-28T00:44:11;2.50;;;2.10;;
26612;SDS011;14248;57.652;11.908;2023-02-28T00:46:37;4.05;;;2.35;;
26612;SDS011;14248;57.652;11.908;2023-02-28T00:49:03;3.47;;;2.20;;
26612;SDS011;14248;57.652;11.908;2023-02-28T00:51:29;2.97;;;1.77;;
26612;SDS011;14248;57.652;11.908;2023-02-28T00:53:55;2.42;;;2.00;;
26612;SDS011;14248;57.652;11.908;2023-02-28T00:56:21;2.85;;;2.03;;
26612;SDS011;14248;57.652;11.908;2023-02-28T00:58:47;2.22;;;1.80;;
26612;SDS011;14248;57.652;11.908;2023-02-28T01:01:13;3.35;;;1.88;;
26612;SDS011;14248;57.652;11.908;2023-02-28T01:03:40;2.55;;;1.70;;
26612;SDS011;14248;57.652;11.908;2023-02-28T01:06:07;2.85;;;1.98;;
26612;SDS011;14248;57.652;11.908;2023-02-28T01:08:33;3.72;;;2.33;;
26612;SDS011;14248;57.652;11.908;2023-02-28T01:11:10;2.50;;;1.90;;
26612;SDS011;14248;57.652;11.908;2023-02-28T01:13:37;3.50;;;1.80;;
26612;SDS011;14248;57.652;11.908;2023-02-28T01:16:04;3.22;;;1.85;;
26612;SDS011;14248;57.652;11.908;2023-02-28T01:18:30;3.72;;;1.85;;
26612;SDS011;14248;57.652;11.908;2023-02-28T01:20:56;4.75;;;1.83;;
26612;SDS011;14248;57.652;11.908;2023-02-28T01:23:22;5.78;;;2.00;;
26612;SDS011;14248;57.652;11.908;2023-02-28T01:25:49;2.55;;;1.98;;
26612;SDS011;14248;57.652;11.908;2023-02-28T01:28:16;3.20;;;1.67;;
26612;SDS011;14248;57.652;11.908;2023-02-28T01:30:46;2.22;;;1.75;;
26612;SDS011;14248;57.652;11.908;2023-02-28T01:33:16;2.70;;;1.55;;
26612;SDS011;14248;57.652;11.908;2023-02-28T01:35:42;4.60;;;2.30;;
26612;SDS011;14248;57.652;11.908;2023-02-28T01:38:08;3.47;;;2.20;;
26612;SDS011;14248;57.652;11.908;2023-02-28T01:40:35;3.60;;;2.28;;
26612;SDS011;14248;57.652;11.908;2023-02-28T01:43:04;3.53;;;2.10;;
26612;SDS011;14248;57.652;11.908;2023-02-28T01:45:31;4.03;;;2.17;;
26612;SDS011;14248;57.652;11.908;2023-02-28T01:47:58;2.42;;;1.77;;
26612;SDS011;14248;57.652;11.908;2023-02-28T01:50:27;3.20;;;2.20;;
26612;SDS011;14248;57.652;11.908;2023-02-28T01:52:57;3.67;;;2.17;;
26612;SDS011;14248;57.652;11.908;2023-02-28T01:55:26;3.03;;;2.03;;
26612;SDS011;14248;57.652;11.908;2023-02-28T01:57:57;3.00;;;1.83;;
26612;SDS011;14248;57.652;11.908;2023-02-28T02:00:25;3.47;;;1.77;;
26612;SDS011;14248;57.652;11.908;2023-02-28T02:02:53;3.17;;;1.95;;
26612;SDS011;14248;57.652;11.908;2023-02-28T02:05:24;3.05;;;1.92;;
26612;SDS011;14248;57.652;11.908;2023-02-28T02:07:52;4.82;;;1.98;;
26612;SDS011;14248;57.652;11.908;2023-02-28T02:10:21;3.55;;;2.08;;
26612;SDS011;14248;57.652;11.908;2023-02-28T02:13:00;3.30;;;2.05;;
26612;SDS011;14248;57.652;11.908;2023-02-28T02:17:57;3.15;;;1.92;;
26612;SDS011;14248;57.652;11.908;2023-02-28T02:28:29;4.47;;;2.20;;
26612;SDS011;14248;57.652;11.908;2023-02-28T02:39:04;4.50;;;1.73;;
26612;SDS011;14248;57.652;11.908;2023-02-28T02:44:11;4.43;;;1.90;;
26612;SDS011;14248;57.652;11.908;2023-02-28T02:46:45;3.40;;;2.33;;
26612;SDS011;14248;57.652;11.908;2023-02-28T02:49:13;3.28;;;2.22;;
26612;SDS011;14248;57.652;11.908;2023-02-28T02:51:41;3.75;;;2.05;;
26612;SDS011;14248;57.652;11.908;2023-02-28T02:54:08;3.22;;;1.80;;
26612;SDS011;14248;57.652;11.908;2023-02-28T02:56:37;3.72;;;1.90;;
26612;SDS011;14248;57.652;11.908;2023-02-28T02:59:07;3.20;;;2.08;;
26612;SDS011;14248;57.652;11.908;2023-02-28T03:01:34;3.97;;;1.77;;
26612;SDS011;14248;57.652;11.908;2023-02-28T03:04:08;2.95;;;1.80;;
26612;SDS011;14248;57.652;11.908;2023-02-28T03:06:34;2.25;;;2.05;;
26612;SDS011;14248;57.652;11.908;2023-02-28T03:09:01;3.40;;;1.90;;
26612;SDS011;14248;57.652;11.908;2023-02-28T03:11:27;2.47;;;1.83;;
26612;SDS011;14248;57.652;11.908;2023-02-28T03:19:01;4.00;;;2.63;;
26612;SDS011;14248;57.652;11.908;2023-02-28T03:26:22;3.80;;;2.50;;
26612;SDS011;14248;57.652;11.908;2023-02-28T03:28:54;3.25;;;2.28;;
26612;SDS011;14248;57.652;11.908;2023-02-28T03:31:59;4.68;;;2.67;;
26612;SDS011;14248;57.652;11.908;2023-02-28T03:34:20;3.75;;;2.38;;
26612;SDS011;14248;57.652;11.908;2023-02-28T03:36:49;2.85;;;2.00;;
26612;SDS011;14248;57.652;11.908;2023-02-28T03:39:27;2.85;;;1.80;;
26612;SDS011;14248;57.652;11.908;2023-02-28T03:44:29;4.47;;;1.90;;
26612;SDS011;14248;57.652;11.908;2023-02-28T03:46:58;3.75;;;2.30;;
26612;SDS011;14248;57.652;11.908;2023-02-28T03:49:33;3.45;;;2.00;;
26612;SDS011;14248;57.652;11.908;2023-02-28T03:52:02;2.28;;;1.90;;
26612;SDS011;14248;57.652;11.908;2023-02-28T03:54:31;2.38;;;1.77;;
26612;SDS011;14248;57.652;11.908;2023-02-28T03:59:47;4.13;;;2.08;;
26612;SDS011;14248;57.652;11.908;2023-02-28T04:02:15;3.28;;;2.20;;
26612;SDS011;14248;57.652;11.908;2023-02-28T04:04:41;3.13;;;2.10;;
26612;SDS011;14248;57.652;11.908;2023-02-28T04:07:14;3.80;;;2.30;;
26612;SDS011;14248;57.652;11.908;2023-02-28T04:09:40;4.70;;;2.70;;
26612;SDS011;14248;57.652;11.908;2023-02-28T04:12:07;4.03;;;2.13;;
26612;SDS011;14248;57.652;11.908;2023-02-28T04:14:33;3.33;;;2.00;;
26612;SDS011;14248;57.652;11.908;2023-02-28T04:16:59;5.03;;;2.10;;
26612;SDS011;14248;57.652;11.908;2023-02-28T04:19:25;5.85;;;1.95;;
26612;SDS011;14248;57.652;11.908;2023-02-28T04:21:52;2.85;;;1.88;;
26612;SDS011;14248;57.652;11.908;2023-02-28T04:24:19;3.53;;;2.05;;
26612;SDS011;14248;57.652;11.908;2023-02-28T04:26:46;4.25;;;1.80;;
26612;SDS011;14248;57.652;11.908;2023-02-28T04:29:14;5.07;;;1.85;;
26612;SDS011;14248;57.652;11.908;2023-02-28T04:31:44;3.22;;;1.83;;
26612;SDS011;14248;57.652;11.908;2023-02-28T04:34:10;3.10;;;1.85;;
26612;SDS011;14248;57.652;11.908;2023-02-28T04:36:36;3.42;;;1.90;;
26612;SDS011;14248;57.652;11.908;2023-02-28T04:39:02;4.55;;;1.92;;
26612;SDS011;14248;57.652;11.908;2023-02-28T04:41:29;2.55;;;1.80;;
26612;SDS011;14248;57.652;11.908;2023-02-28T04:43:55;2.40;;;1.70;;
26612;SDS011;14248;57.652;11.908;2023-02-28T04:46:22;3.05;;;1.85;;
26612;SDS011;14248;57.652;11.908;2023-02-28T04:51:19;2.80;;;2.00;;
26612;SDS011;14248;57.652;11.908;2023-02-28T04:53:45;2.63;;;1.38;;
26612;SDS011;14248;57.652;11.908;2023-02-28T04:56:12;1.95;;;1.70;;
26612;SDS011;14248;57.652;11.908;2023-02-28T04:58:38;4.10;;;1.70;;
26612;SDS011;14248;57.652;11.908;2023-02-28T05:01:24;2.75;;;1.80;;
26612;SDS011;14248;57.652;11.908;2023-02-28T05:03:51;3.35;;;1.95;;
26612;SDS011;14248;57.652;11.908;2023-02-28T05:06:19;4.03;;;2.00;;
26612;SDS011;14248;57.652;11.908;2023-02-28T05:08:45;2.38;;;1.88;;
26612;SDS011;14248;57.652;11.908;2023-02-28T05:11:13;3.83;;;1.75;;
26612;SDS011;14248;57.652;11.908;2023-02-28T05:13:39;2.47;;;1.42;;
26612;SDS011;14248;57.652;11.908;2023-02-28T05:16:05;2.50;;;1.52;;
26612;SDS011;14248;57.652;11.908;2023-02-28T05:18:32;2.80;;;1.70;;
26612;SDS011;14248;57.652;11.908;2023-02-28T05:20:59;2.13;;;1.65;;
26612;SDS011;14248;57.652;11.908;2023-02-28T05:23:28;4.00;;;2.00;;
26612;SDS011;14248;57.652;11.908;2023-02-28T05:25:54;4.07;;;2.00;;
26612;SDS011;14248;57.652;11.908;2023-02-28T05:28:21;4.22;;;1.90;;
26612;SDS011;14248;57.652;11.908;2023-02-28T05:30:47;4.57;;;2.08;;
26612;SDS011;14248;57.652;11.908;2023-02-28T05:33:13;2.60;;;1.60;;
26612;SDS011;14248;57.652;11.908;2023-02-28T05:35:40;2.88;;;1.80;;
26612;SDS011;14248;57.652;11.908;2023-02-28T05:38:07;2.40;;;1.70;;
26612;SDS011;14248;57.652;11.908;2023-02-28T05:40:33;3.90;;;2.05;;
26612;SDS011;14248;57.652;11.908;2023-02-28T05:43:01;2.03;;;1.63;;
26612;SDS011;14248;57.652;11.908;2023-02-28T05:45:27;4.45;;;2.72;;
26612;SDS011;14248;57.652;11.908;2023-02-28T05:47:54;8.13;;;4.60;;
26612;SDS011;14248;57.652;11.908;2023-02-28T05:50:20;12.20;;;5.80;;
26612;SDS011;14248;57.652;11.908;2023-02-28T05:52:50;7.55;;;4.60;;
26612;SDS011;14248;57.652;11.908;2023-02-28T05:55:16;7.03;;;3.92;;
26612;SDS011;14248;57.652;11.908;2023-02-28T05:57:43;5.65;;;3.10;;
26612;SDS011;14248;57.652;11.908;2023-02-28T06:00:09;5.22;;;2.88;;
26612;SDS011;14248;57.652;11.908;2023-02-28T06:02:36;4.78;;;2.92;;
26612;SDS011;14248;57.652;11.908;2023-02-28T06:05:05;4.47;;;2.92;;
26612;SDS011;14248;57.652;11.908;2023-02-28T06:07:31;4.47;;;3.45;;
26612;SDS011;14248;57.652;11.908;2023-02-28T06:09:57;8.63;;;4.57;;
26612;SDS011;14248;57.652;11.908;2023-02-28T06:12:23;7.13;;;4.88;;
26612;SDS011;14248;57.652;11.908;2023-02-28T06:14:50;6.03;;;4.18;;
26612;SDS011;14248;57.652;11.908;2023-02-28T06:17:18;7.10;;;4.30;;
26612;SDS011;14248;57.652;11.908;2023-02-28T06:19:44;6.15;;;3.80;;
26612;SDS011;14248;57.652;11.908;2023-02-28T06:22:12;7.03;;;3.83;;
26612;SDS011;14248;57.652;11.908;2023-02-28T06:24:38;5.07;;;3.40;;
26612;SDS011;14248;57.652;11.908;2023-02-28T06:27:05;5.95;;;3.80;;
26612;SDS011;14248;57.652;11.908;2023-02-28T06:29:32;6.53;;;3.75;;
26612;SDS011;14248;57.652;11.908;2023-02-28T06:32:02;6.57;;;3.70;;
26612;SDS011;14248;57.652;11.908;2023-02-28T06:34:28;3.92;;;2.95;;
26612;SDS011;14248;57.652;11.908;2023-02-28T06:36:56;5.25;;;2.92;;
26612;SDS011;14248;57.652;11.908;2023-02-28T06:39:28;3.33;;;2.50;;
26612;SDS011;14248;57.652;11.908;2023-02-28T06:41:54;3.88;;;2.47;;
26612;SDS011;14248;57.652;11.908;2023-02-28T06:44:20;4.13;;;2.25;;
26612;SDS011;14248;57.652;11.908;2023-02-28T06:46:48;3.80;;;2.50;;
26612;SDS011;14248;57.652;11.908;2023-02-28T06:49:18;5.22;;;2.88;;
26612;SDS011;14248;57.652;11.908;2023-02-28T06:51:45;3.63;;;2.33;;
26612;SDS011;14248;57.652;11.908;2023-02-28T06:54:11;4.07;;;2.67;;
26612;SDS011;14248;57.652;11.908;2023-02-28T06:56:38;3.90;;;2.42;;
26612;SDS011;14248;57.652;11.908;2023-02-28T06:59:04;4.05;;;2.33;;
26612;SDS011;14248;57.652;11.908;2023-02-28T07:01:31;5.07;;;2.45;;
26612;SDS011;14248;57.652;11.908;2023-02-28T07:03:58;3.78;;;2.20;;
26612;SDS011;14248;57.652;11.908;2023-02-28T07:06:25;3.67;;;2.15;;
26612;SDS011;14248;57.652;11.908;2023-02-28T07:08:54;7.07;;;2.95;;
26612;SDS011;14248;57.652;11.908;2023-02-28T07:11:23;8.95;;;2.72;;
26612;SDS011;14248;57.652;11.908;2023-02-28T07:13:53;6.47;;;2.65;;
26612;SDS011;14248;57.652;11.908;2023-02-28T07:16:20;7.00;;;2.63;;
26612;SDS011;14248;57.652;11.908;2023-02-28T07:18:46;7.88;;;2.83;;
26612;SDS011;14248;57.652;11.908;2023-02-28T07:21:13;10.52;;;3.30;;
26612;SDS011;14248;57.652;11.908;2023-02-28T07:23:40;6.88;;;2.72;;
26612;SDS011;14248;57.652;11.908;2023-02-28T07:26:11;7.35;;;3.00;;
26612;SDS011;14248;57.652;11.908;2023-02-28T07:28:40;7.63;;;3.90;;
26612;SDS011;14248;57.652;11.908;2023-02-28T07:31:08;4.78;;;2.60;;
26612;SDS011;14248;57.652;11.908;2023-02-28T07:33:34;5.13;;;2.75;;
26612;SDS011;14248;57.652;11.908;2023-02-28T07:36:01;5.47;;;2.50;;
26612;SDS011;14248;57.652;11.908;2023-02-28T07:38:27;3.80;;;2.45;;
26612;SDS011;14248;57.652;11.908;2023-02-28T07:40:53;4.10;;;1.98;;
26612;SDS011;14248;57.652;11.908;2023-02-28T07:43:19;4.95;;;2.50;;
26612;SDS011;14248;57.652;11.908;2023-02-28T07:45:46;12.48;;;3.13;;
26612;SDS011;14248;57.652;11.908;2023-02-28T07:48:12;13.40;;;5.80;;
26612;SDS011;14248;57.652;11.908;2023-02-28T07:50:38;13.02;;;4.43;;
26612;SDS011;14248;57.652;11.908;2023-02-28T07:53:04;8.43;;;3.75;;
26612;SDS011;14248;57.652;11.908;2023-02-28T07:55:31;13.25;;;4.65;;
26612;SDS011;14248;57.652;11.908;2023-02-28T07:57:57;9.85;;;3.88;;
26612;SDS011;14248;57.652;11.908;2023-02-28T08:00:23;9.95;;;4.22;;
26612;SDS011;14248;57.652;11.908;2023-02-28T08:02:49;11.32;;;4.10;;
26612;SDS011;14248;57.652;11.908;2023-02-28T08:05:16;9.30;;;3.80;;
26612;SDS011;14248;57.652;11.908;2023-02-28T08:07:42;11.30;;;4.05;;
26612;SDS011;14248;57.652;11.908;2023-02-28T08:10:08;10.82;;;4.15;;
26612;SDS011;14248;57.652;11.908;2023-02-28T08:12:35;12.05;;;3.63;;
26612;SDS011;14248;57.652;11.908;2023-02-28T08:15:01;9.93;;;3.92;;
26612;SDS011;14248;57.652;11.908;2023-02-28T08:17:27;6.82;;;3.33;;
26612;SDS011;14248;57.652;11.908;2023-02-28T08:19:53;7.13;;;3.00;;
26612;SDS011;14248;57.652;11.908;2023-02-28T08:22:19;9.55;;;3.50;;
26612;SDS011;14248;57.652;11.908;2023-02-28T08:24:45;6.63;;;3.40;;
26612;SDS011;14248;57.652;11.908;2023-02-28T08:27:11;6.75;;;3.47;;
26612;SDS011;14248;57.652;11.908;2023-02-28T08:29:38;7.85;;;3.45;;
26612;SDS011;14248;57.652;11.908;2023-02-28T08:32:04;8.52;;;3.67;;
26612;SDS011;14248;57.652;11.908;2023-02-28T08:34:30;7.90;;;3.75;;
26612;SDS011;14248;57.652;11.908;2023-02-28T08:36:57;7.88;;;4.50;;
26612;SDS011;14248;57.652;11.908;2023-02-28T08:39:24;10.05;;;5.10;;
26612;SDS011;14248;57.652;11.908;2023-02-28T08:41:50;5.45;;;3.95;;
26612;SDS011;14248;57.652;11.908;2023-02-28T08:44:16;5.95;;;3.30;;
26612;SDS011;14248;57.652;11.908;2023-02-28T08:46:42;5.82;;;3.42;;
26612;SDS011;14248;57.652;11.908;2023-02-28T08:49:09;6.30;;;3.47;;
26612;SDS011;14248;57.652;11.908;2023-02-28T08:51:35;6.03;;;3.28;;
26612;SDS011;14248;57.652;11.908;2023-02-28T08:54:01;6.20;;;3.13;;
26612;SDS011;14248;57.652;11.908;2023-02-28T08:56:29;5.00;;;3.50;;
26612;SDS011;14248;57.652;11.908;2023-02-28T08:58:56;4.88;;;2.92;;
26612;SDS011;14248;57.652;11.908;2023-02-28T09:01:23;6.72;;;3.47;;
26612;SDS011;14248;57.652;11.908;2023-02-28T09:03:50;7.03;;;3.40;;
26612;SDS011;14248;57.652;11.908;2023-02-28T09:06:17;6.93;;;3.58;;
26612;SDS011;14248;57.652;11.908;2023-02-28T09:08:44;5.38;;;3.30;;
26612;SDS011;14248;57.652;11.908;2023-02-28T09:11:10;6.30;;;3.47;;
26612;SDS011;14248;57.652;11.908;2023-02-28T09:13:37;4.00;;;3.10;;
26612;SDS011;14248;57.652;11.908;2023-02-28T09:16:04;4.50;;;3.13;;
26612;SDS011;14248;57.652;11.908;2023-02-28T09:18:30;4.88;;;2.95;;
26612;SDS011;14248;57.652;11.908;2023-02-28T09:20:56;4.20;;;2.90;;
26612;SDS011;14248;57.652;11.908;2023-02-28T09:23:23;4.75;;;3.10;;
26612;SDS011;14248;57.652;11.908;2023-02-28T09:25:53;5.53;;;3.40;;
26612;SDS011;14248;57.652;11.908;2023-02-28T09:28:21;5.90;;;3.15;;
26612;SDS011;14248;57.652;11.908;2023-02-28T09:30:48;4.50;;;3.28;;
26612;SDS011;14248;57.652;11.908;2023-02-28T09:33:15;4.40;;;3.10;;
26612;SDS011;14248;57.652;11.908;2023-02-28T09:35:42;8.88;;;5.50;;
26612;SDS011;14248;57.652;11.908;2023-02-28T09:38:08;7.18;;;4.00;;
26612;SDS011;14248;57.652;11.908;2023-02-28T09:40:35;5.05;;;3.35;;
26612;SDS011;14248;57.652;11.908;2023-02-28T09:43:01;5.95;;;3.40;;
26612;SDS011;14248;57.652;11.908;2023-02-28T09:47:56;6.35;;;3.45;;
26612;SDS011;14248;57.652;11.908;2023-02-28T09:53:01;2.65;;;2.20;;
26612;SDS011;14248;57.652;11.908;2023-02-28T09:55:29;3.22;;;2.30;;
26612;SDS011;14248;57.652;11.908;2023-02-28T09:57:56;3.00;;;2.35;;
26612;SDS011;14248;57.652;11.908;2023-02-28T10:00:30;3.78;;;2.30;;
26612;SDS011;14248;57.652;11.908;2023-02-28T10:05:28;4.03;;;2.58;;
26612;SDS011;14248;57.652;11.908;2023-02-28T10:10:46;2.85;;;2.13;;
26612;SDS011;14248;57.652;11.908;2023-02-28T10:15:40;3.53;;;2.05;;
26612;SDS011;14248;57.652;11.908;2023-02-28T10:18:11;3.20;;;2.20;;
26612;SDS011;14248;57.652;11.908;2023-02-28T10:20:40;3.15;;;2.33;;
26612;SDS011;14248;57.652;11.908;2023-02-28T10:25:35;2.08;;;1.83;;
26612;SDS011;14248;57.652;11.908;2023-02-28T10:30:34;2.40;;;1.90;;
26612;SDS011;14248;57.652;11.908;2023-02-28T10:33:00;5.00;;;3.28;;
26612;SDS011;14248;57.652;11.908;2023-02-28T10:35:26;2.88;;;2.47;;
26612;SDS011;14248;57.652;11.908;2023-02-28T10:37:54;3.97;;;2.80;;
26612;SDS011;14248;57.652;11.908;2023-02-28T10:43:11;4.03;;;3.00;;
26612;SDS011;14248;57.652;11.908;2023-02-28T10:56:33;4.82;;;2.90;;
26612;SDS011;14248;57.652;11.908;2023-02-28T11:03:57;3.30;;;2.67;;
26612;SDS011;14248;57.652;11.908;2023-02-28T11:06:31;4.70;;;3.13;;
26612;SDS011;14248;57.652;11.908;2023-02-28T11:08:58;4.15;;;2.80;;
26612;SDS011;14248;57.652;11.908;2023-02-28T11:11:26;4.22;;;2.78;;
26612;SDS011;14248;57.652;11.908;2023-02-28T11:13:55;3.45;;;2.65;;
26612;SDS011;14248;57.652;11.908;2023-02-28T11:16:22;4.82;;;3.53;;
26612;SDS011;14248;57.652;11.908;2023-02-28T11:19:00;5.70;;;3.40;;
26612;SDS011;14248;57.652;11.908;2023-02-28T11:21:27;5.45;;;3.75;;
26612;SDS011;14248;57.652;11.908;2023-02-28T11:24:19;4.30;;;3.33;;
26612;SDS011;14248;57.652;11.908;2023-02-28T11:26:42;5.60;;;3.80;;
26612;SDS011;14248;57.652;11.908;2023-02-28T11:31:37;7.00;;;4.50;;
26612;SDS011;14248;57.652;11.908;2023-02-28T11:34:11;7.13;;;4.57;;
26612;SDS011;14248;57.652;11.908;2023-02-28T11:36:54;12.18;;;7.07;;
26612;SDS011;14248;57.652;11.908;2023-02-28T11:39:21;12.63;;;7.30;;
26612;SDS011;14248;57.652;11.908;2023-02-28T11:44:43;6.25;;;4.10;;
26612;SDS011;14248;57.652;11.908;2023-02-28T11:55:08;6.03;;;3.33;;
26612;SDS011;14248;57.652;11.908;2023-02-28T12:03:11;6.95;;;4.10;;
26612;SDS011;14248;57.652;11.908;2023-02-28T12:13:30;5.07;;;3.33;;
26612;SDS011;14248;57.652;11.908;2023-02-28T12:28:38;4.72;;;2.83;;
26612;SDS011;14248;57.652;11.908;2023-02-28T12:33:53;4.53;;;2.70;;
26612;SDS011;14248;57.652;11.908;2023-02-28T12:36:20;3.75;;;2.78;;
26612;SDS011;14248;57.652;11.908;2023-02-28T12:38:55;3.35;;;2.70;;
26612;SDS011;14248;57.652;11.908;2023-02-28T12:46:37;5.65;;;2.90;;
26612;SDS011;14248;57.652;11.908;2023-02-28T12:49:13;3.63;;;2.10;;
26612;SDS011;14248;57.652;11.908;2023-02-28T12:51:44;5.68;;;2.30;;
26612;SDS011;14248;57.652;11.908;2023-02-28T12:54:18;3.67;;;2.35;;
26612;SDS011;14248;57.652;11.908;2023-02-28T13:00:04;6.25;;;2.22;;
26612;SDS011;14248;57.652;11.908;2023-02-28T13:02:48;3.10;;;1.90;;
26612;SDS011;14248;57.652;11.908;2023-02-28T13:11:31;4.03;;;1.95;;
26612;SDS011;14248;57.652;11.908;2023-02-28T13:14:35;1.85;;;1.48;;
26612;SDS011;14248;57.652;11.908;2023-02-28T13:25:13;3.58;;;1.52;;
26612;SDS011;14248;57.652;11.908;2023-02-28T13:28:13;3.85;;;1.73;;
26612;SDS011;14248;57.652;11.908;2023-02-28T13:31:15;2.78;;;1.63;;
26612;SDS011;14248;57.652;11.908;2023-02-28T13:38:47;2.75;;;1.58;;
26612;SDS011;14248;57.652;11.908;2023-02-28T13:41:40;1.58;;;1.20;;
26612;SDS011;14248;57.652;11.908;2023-02-28T13:47:22;1.08;;;0.90;;
26612;SDS011;14248;57.652;11.908;2023-02-28T13:49:52;1.45;;;1.08;;
26612;SDS011;14248;57.652;11.908;2023-02-28T13:52:20;2.58;;;1.02;;
26612;SDS011;14248;57.652;11.908;2023-02-28T13:57:49;1.65;;;1.20;;
26612;SDS011;14248;57.652;11.908;2023-02-28T14:05:28;1.92;;;1.17;;
26612;SDS011;14248;57.652;11.908;2023-02-28T14:07:58;1.30;;;1.20;;
26612;SDS011;14248;57.652;11.908;2023-02-28T14:10:30;1.10;;;1.00;;
26612;SDS011;14248;57.652;11.908;2023-02-28T14:13:01;1.55;;;1.15;;
26612;SDS011;14248;57.652;11.908;2023-02-28T14:20:49;2.28;;;1.20;;
26612;SDS011;14248;57.652;11.908;2023-02-28T14:23:43;1.85;;;1.45;;
26612;SDS011;14248;57.652;11.908;2023-02-28T14:32:15;1.90;;;1.38;;
26612;SDS011;14248;57.652;11.908;2023-02-28T14:37:47;1.35;;;1.25;;
26612;SDS011;14248;57.652;11.908;2023-02-28T14:40:37;1.45;;;1.35;;
26612;SDS011;14248;57.652;11.908;2023-02-28T14:43:04;1.63;;;1.30;;
26612;SDS011;14248;57.652;11.908;2023-02-28T14:45:48;1.98;;;1.02;;
26612;SDS011;14248;57.652;11.908;2023-02-28T14:48:37;1.42;;;1.25;;
26612;SDS011;14248;57.652;11.908;2023-02-28T14:51:06;2.70;;;1.40;;
26612;SDS011;14248;57.652;11.908;2023-02-28T14:53:35;1.92;;;1.35;;
26612;SDS011;14248;57.652;11.908;2023-02-28T14:56:02;1.73;;;1.10;;
26612;SDS011;14248;57.652;11.908;2023-02-28T14:58:30;1.85;;;1.10;;
26612;SDS011;14248;57.652;11.908;2023-02-28T15:00:59;1.02;;;0.98;;
26612;SDS011;14248;57.652;11.908;2023-02-28T15:06:05;0.80;;;0.80;;
26612;SDS011;14248;57.652;11.908;2023-02-28T15:14:17;1.30;;;1.20;;
26612;SDS011;14248;57.652;11.908;2023-02-28T15:16:57;1.90;;;1.55;;
26612;SDS011;14248;57.652;11.908;2023-02-28T15:19:33;3.88;;;2.53;;
26612;SDS011;14248;57.652;11.908;2023-02-28T15:22:06;4.72;;;3.15;;
26612;SDS011;14248;57.652;11.908;2023-02-28T15:24:52;4.57;;;2.83;;
26612;SDS011;14248;57.652;11.908;2023-02-28T15:30:05;2.10;;;1.75;;
26612;SDS011;14248;57.652;11.908;2023-02-28T15:32:34;1.40;;;1.30;;
26612;SDS011;14248;57.652;11.908;2023-02-28T15:40:52;0.65;;;0.65;;
26612;SDS011;14248;57.652;11.908;2023-02-28T15:43:27;1.40;;;1.20;;
26612;SDS011;14248;57.652;11.908;2023-02-28T15:46:03;1.42;;;1.30;;
26612;SDS011;14248;57.652;11.908;2023-02-28T15:48:44;1.73;;;1.52;;
26612;SDS011;14248;57.652;11.908;2023-02-28T15:51:20;2.03;;;1.83;;
26612;SDS011;14248;57.652;11.908;2023-02-28T15:57:05;1.63;;;1.52;;
26612;SDS011;14248;57.652;11.908;2023-02-28T15:59:36;2.83;;;1.40;;
26612;SDS011;14248;57.652;11.908;2023-02-28T16:02:13;2.20;;;1.58;;
26612;SDS011;14248;57.652;11.908;2023-02-28T16:05:13;1.52;;;1.42;;
26612;SDS011;14248;57.652;11.908;2023-02-28T16:07:55;1.83;;;1.73;;
26612;SDS011;14248;57.652;11.908;2023-02-28T16:10:23;2.25;;;2.05;;
26612;SDS011;14248;57.652;11.908;2023-02-28T16:12:53;3.40;;;2.30;;
26612;SDS011;14248;57.652;11.908;2023-02-28T16:15:22;3.15;;;2.50;;
26612;SDS011;14248;57.652;11.908;2023-02-28T16:17:51;2.65;;;2.15;;
26612;SDS011;14248;57.652;11.908;2023-02-28T16:20:19;2.80;;;2.30;;
26612;SDS011;14248;57.652;11.908;2023-02-28T16:22:46;2.30;;;2.10;;
26612;SDS011;14248;57.652;11.908;2023-02-28T16:25:18;2.83;;;2.22;;
26612;SDS011;14248;57.652;11.908;2023-02-28T16:27:45;2.75;;;2.47;;
26612;SDS011;14248;57.652;11.908;2023-02-28T16:30:22;2.83;;;2.20;;
26612;SDS011;14248;57.652;11.908;2023-02-28T16:32:49;3.78;;;2.58;;
26612;SDS011;14248;57.652;11.908;2023-02-28T16:35:15;2.78;;;2.35;;
26612;SDS011;14248;57.652;11.908;2023-02-28T16:37:42;2.65;;;2.30;;
26612;SDS011;14248;57.652;11.908;2023-02-28T16:40:21;3.80;;;2.30;;
26612;SDS011;14248;57.652;11.908;2023-02-28T16:42:50;3.83;;;2.63;;
26612;SDS011;14248;57.652;11.908;2023-02-28T16:45:17;2.65;;;2.45;;
26612;SDS011;14248;57.652;11.908;2023-02-28T16:47:44;3.50;;;2.53;;
26612;SDS011;14248;57.652;11.908;2023-02-28T16:50:30;3.13;;;2.50;;
26612;SDS011;14248;57.652;11.908;2023-02-28T16:52:59;2.75;;;2.22;;
26612;SDS011;14248;57.652;11.908;2023-02-28T16:55:25;2.70;;;2.30;;
26612;SDS011;14248;57.652;11.908;2023-02-28T16:57:58;2.63;;;2.30;;
26612;SDS011;14248;57.652;11.908;2023-02-28T17:00:25;3.13;;;2.53;;
26612;SDS011;14248;57.652;11.908;2023-02-28T17:02:53;3.65;;;2.17;;
26612;SDS011;14248;57.652;11.908;2023-02-28T17:05:19;2.30;;;1.67;;
26612;SDS011;14248;57.652;11.908;2023-02-28T17:07:46;2.08;;;1.88;;
26612;SDS011;14248;57.652;11.908;2023-02-28T17:10:17;2.17;;;1.77;;
26612;SDS011;14248;57.652;11.908;2023-02-28T17:12:43;2.40;;;1.90;;
26612;SDS011;14248;57.652;11.908;2023-02-28T17:15:11;2.47;;;2.10;;
26612;SDS011;14248;57.652;11.908;2023-02-28T17:17:37;3.25;;;1.95;;
26612;SDS011;14248;57.652;11.908;2023-02-28T17:20:04;3.95;;;2.63;;
26612;SDS011;14248;57.652;11.908;2023-02-28T17:22:31;3.85;;;2.55;;
26612;SDS011;14248;57.652;11.908;2023-02-28T17:24:57;4.18;;;2.80;;
26612;SDS011;14248;57.652;11.908;2023-02-28T17:27:24;4.20;;;2.50;;
26612;SDS011;14248;57.652;11.908;2023-02-28T17:29:51;4.22;;;2.72;;
26612;SDS011;14248;57.652;11.908;2023-02-28T17:32:17;2.67;;;2.10;;
26612;SDS011;14248;57.652;11.908;2023-02-28T17:34:43;4.63;;;2.45;;
26612;SDS011;14248;57.652;11.908;2023-02-28T17:37:10;4.85;;;2.78;;
26612;SDS011;14248;57.652;11.908;2023-02-28T17:39:37;4.70;;;3.03;;
26612;SDS011;14248;57.652;11.908;2023-02-28T17:42:04;5.47;;;2.90;;
26612;SDS011;14248;57.652;11.908;2023-02-28T17:44:32;4.35;;;2.88;;
26612;SDS011;14248;57.652;11.908;2023-02-28T17:46:59;5.60;;;2.80;;
26612;SDS011;14248;57.652;11.908;2023-02-28T17:49:25;6.15;;;3.45;;
26612;SDS011;14248;57.652;11.908;2023-02-28T17:51:52;6.50;;;3.00;;
26612;SDS011;14248;57.652;11.908;2023-02-28T17:54:18;6.05;;;3.08;;